sensor_id;sensor_type;location;lat;lon;timestamp;pressure;altitude;pressure_sealevel;temperature;humidity
60228;BME280;46091;46.512;6.626;2023-02-19T00:00:45;97866.00;;;13.07;54.83
60228;BME280;46091;46.512;6.626;2023-02-19T00:02:48;97862.72;;;13.05;55.38
60228;BME280;46091;46.512;6.626;2023-02-19T00:04:52;97870.03;;;13.03;55.35
60228;BME280;46091;46.512;6.626;2023-02-19T00:06:55;97871.03;;;13.02;55.37
60228;BME280;46091;46.512;6.626;2023-02-19T00:08:58;97868.72;;;12.99;55.32
60228;BME280;46091;46.512;6.626;2023-02-19T00:11:02;97870.56;;;12.99;55.17
60228;BME280;46091;46.512;6.626;2023-02-19T00:13:05;97861.78;;;12.98;55.18
60228;BME280;46091;46.512;6.626;2023-02-19T00:15:09;97869.94;;;12.97;55.32
60228;BME280;46091;46.512;6.626;2023-02-19T00:17:12;97870.94;;;12.96;55.37
60228;BME280;46091;46.512;6.626;2023-02-19T00:19:16;97865.81;;;12.94;55.44
60228;BME280;46091;46.512;6.626;2023-02-19T00:21:19;97870.47;;;12.92;55.32
60228;BME280;46091;46.512;6.626;2023-02-19T00:23:22;97867.97;;;12.91;55.46
60228;BME280;46091;46.512;6.626;2023-02-19T00:25:25;97860.03;;;12.91;55.46
60228;BME280;46091;46.512;6.626;2023-02-19T00:27:28;97870.81;;;12.89;55.37
60228;BME280;46091;46.512;6.626;2023-02-19T00:29:31;97865.50;;;12.89;55.24
60228;BME280;46091;46.512;6.626;2023-02-19T00:31:35;97869.00;;;12.90;55.16
60228;BME280;46091;46.512;6.626;2023-02-19T00:33:38;97867.34;;;12.89;55.46
60228;BME280;46091;46.512;6.626;2023-02-19T00:35:41;97858.56;;;12.88;55.52
60228;BME280;46091;46.512;6.626;2023-02-19T00:37:43;97864.06;;;12.87;55.25
60228;BME280;46091;46.512;6.626;2023-02-19T00:39:47;97867.72;;;12.86;55.45
60228;BME280;46091;46.512;6.626;2023-02-19T00:41:50;97867.72;;;12.86;55.54
60228;BME280;46091;46.512;6.626;2023-02-19T00:43:55;97866.91;;;12.85;55.31
60228;BME280;46091;46.512;6.626;2023-02-19T00:45:58;97860.75;;;12.85;55.45
60228;BME280;46091;46.512;6.626;2023-02-19T00:48:02;97861.78;;;12.83;55.63
60228;BME280;46091;46.512;6.626;2023-02-19T00:50:05;97855.81;;;12.81;55.56
60228;BME280;46091;46.512;6.626;2023-02-19T00:52:08;97869.72;;;12.83;55.49
60228;BME280;46091;46.512;6.626;2023-02-19T00:54:11;97869.09;;;12.81;55.51
60228;BME280;46091;46.512;6.626;2023-02-19T00:56:14;97870.75;;;12.82;55.38
60228;BME280;46091;46.512;6.626;2023-02-19T00:58:17;97871.75;;;12.81;55.83
60228;BME280;46091;46.512;6.626;2023-02-19T01:00:20;97868.28;;;12.81;55.72
60228;BME280;46091;46.512;6.626;2023-02-19T01:02:23;97866.44;;;12.81;55.84
60228;BME280;46091;46.512;6.626;2023-02-19T01:04:28;97866.44;;;12.81;55.43
60228;BME280;46091;46.512;6.626;2023-02-19T01:06:31;97870.75;;;12.82;55.89
60228;BME280;46091;46.512;6.626;2023-02-19T01:08:35;97865.63;;;12.81;55.66
60228;BME280;46091;46.512;6.626;2023-02-19T01:10:38;97864.78;;;12.80;55.82
60228;BME280;46091;46.512;6.626;2023-02-19T01:12:41;97865.63;;;12.81;55.88
60228;BME280;46091;46.512;6.626;2023-02-19T01:14:44;97861.47;;;12.78;55.65
60228;BME280;46091;46.512;6.626;2023-02-19T01:16:47;97862.28;;;12.79;56.02
60228;BME280;46091;46.512;6.626;2023-02-19T01:18:50;97860.66;;;12.78;55.64
60228;BME280;46091;46.512;6.626;2023-02-19T01:20:54;97865.13;;;12.77;55.87
60228;BME280;46091;46.512;6.626;2023-02-19T01:22:57;97852.88;;;12.76;55.87
60228;BME280;46091;46.512;6.626;2023-02-19T01:25:00;97859.38;;;12.74;56.06
60228;BME280;46091;46.512;6.626;2023-02-19T01:27:02;97865.50;;;12.74;55.59
60228;BME280;46091;46.512;6.626;2023-02-19T01:29:05;97862.84;;;12.74;55.97
60228;BME280;46091;46.512;6.626;2023-02-19T01:31:12;97862.22;;;12.72;55.88
60228;BME280;46091;46.512;6.626;2023-02-19T01:33:15;97858.09;;;12.70;56.09
60228;BME280;46091;46.512;6.626;2023-02-19T01:35:18;97857.28;;;12.69;55.75
60228;BME280;46091;46.512;6.626;2023-02-19T01:37:22;97847.50;;;12.70;55.86
60228;BME280;46091;46.512;6.626;2023-02-19T01:39:25;97849.31;;;12.69;56.00
60228;BME280;46091;46.512;6.626;2023-02-19T01:41:28;97848.50;;;12.69;55.81
60228;BME280;46091;46.512;6.626;2023-02-19T01:43:31;97847.50;;;12.70;55.94
60228;BME280;46091;46.512;6.626;2023-02-19T01:45:34;97846.66;;;12.69;55.82
60228;BME280;46091;46.512;6.626;2023-02-19T01:47:39;97838.03;;;12.67;56.05
60228;BME280;46091;46.512;6.626;2023-02-19T01:49:45;97843.34;;;12.67;55.72
60228;BME280;46091;46.512;6.626;2023-02-19T01:51:53;97840.06;;;12.65;55.77
60228;BME280;46091;46.512;6.626;2023-02-19T01:54:01;97849.03;;;12.64;56.09
60228;BME280;46091;46.512;6.626;2023-02-19T01:56:07;97845.72;;;12.62;56.11
60228;BME280;46091;46.512;6.626;2023-02-19T01:58:11;97840.41;;;12.62;55.79
60228;BME280;46091;46.512;6.626;2023-02-19T02:00:15;97835.13;;;12.62;56.19
60228;BME280;46091;46.512;6.626;2023-02-19T02:02:18;97829.00;;;12.62;56.04
60228;BME280;46091;46.512;6.626;2023-02-19T02:04:21;97831.00;;;12.60;56.07
60228;BME280;46091;46.512;6.626;2023-02-19T02:06:28;97826.69;;;12.59;55.99
60228;BME280;46091;46.512;6.626;2023-02-19T02:08:32;97828.53;;;12.58;55.77
60228;BME280;46091;46.512;6.626;2023-02-19T02:10:54;97823.56;;;12.55;56.04
60228;BME280;46091;46.512;6.626;2023-02-19T02:12:58;97818.44;;;12.53;55.80
60228;BME280;46091;46.512;6.626;2023-02-19T02:15:01;97815.97;;;12.52;55.84
60228;BME280;46091;46.512;6.626;2023-02-19T02:17:11;97811.31;;;12.54;55.85
60228;BME280;46091;46.512;6.626;2023-02-19T02:19:29;97809.22;;;12.49;55.90
60228;BME280;46091;46.512;6.626;2023-02-19T02:21:55;97821.84;;;12.47;55.94
60228;BME280;46091;46.512;6.626;2023-02-19T02:24:20;97805.44;;;12.44;56.20
60228;BME280;46091;46.512;6.626;2023-02-19T02:26:42;97818.06;;;12.42;56.07
60228;BME280;46091;46.512;6.626;2023-02-19T02:29:05;97811.09;;;12.41;56.20
60228;BME280;46091;46.512;6.626;2023-02-19T02:31:18;97806.00;;;12.39;56.09
60228;BME280;46091;46.512;6.626;2023-02-19T02:33:30;97803.34;;;12.39;56.24
60228;BME280;46091;46.512;6.626;2023-02-19T02:35:41;97807.81;;;12.39;56.21
60228;BME280;46091;46.512;6.626;2023-02-19T02:37:46;97813.13;;;12.39;56.14
60228;BME280;46091;46.512;6.626;2023-02-19T02:39:50;97804.53;;;12.37;56.02
60228;BME280;46091;46.512;6.626;2023-02-19T02:41:55;97795.94;;;12.35;56.27
60228;BME280;46091;46.512;6.626;2023-02-19T02:44:12;97788.13;;;12.33;55.92
60228;BME280;46091;46.512;6.626;2023-02-19T02:46:19;97798.91;;;12.32;56.29
60228;BME280;46091;46.512;6.626;2023-02-19T02:48:33;97802.13;;;12.27;56.41
60228;BME280;46091;46.512;6.626;2023-02-19T02:50:40;97811.25;;;12.24;56.38
60228;BME280;46091;46.512;6.626;2023-02-19T02:52:46;97802.63;;;12.22;56.51
60228;BME280;46091;46.512;6.626;2023-02-19T02:55:09;97798.53;;;12.20;56.23
60228;BME280;46091;46.512;6.626;2023-02-19T02:57:13;97802.00;;;12.20;56.28
60228;BME280;46091;46.512;6.626;2023-02-19T02:59:19;97803.00;;;12.19;56.18
60228;BME280;46091;46.512;6.626;2023-02-19T03:01:29;97799.34;;;12.20;56.26
60228;BME280;46091;46.512;6.626;2023-02-19T03:03:54;97800.34;;;12.19;56.24
60228;BME280;46091;46.512;6.626;2023-02-19T03:06:03;97802.19;;;12.19;56.46
60228;BME280;46091;46.512;6.626;2023-02-19T03:08:11;97787.91;;;12.20;56.52
60228;BME280;46091;46.512;6.626;2023-02-19T03:10:23;97787.09;;;12.19;56.52
60228;BME280;46091;46.512;6.626;2023-02-19T03:12:29;97792.41;;;12.19;56.63
60228;BME280;46091;46.512;6.626;2023-02-19T03:14:52;97786.09;;;12.20;56.36
60228;BME280;46091;46.512;6.626;2023-02-19T03:17:19;97782.44;;;12.21;56.34
60228;BME280;46091;46.512;6.626;2023-02-19T03:19:43;97788.75;;;12.20;56.29
60228;BME280;46091;46.512;6.626;2023-02-19T03:21:52;97788.75;;;12.20;56.24
60228;BME280;46091;46.512;6.626;2023-02-19T03:23:56;97798.53;;;12.20;56.47
60228;BME280;46091;46.512;6.626;2023-02-19T03:26:18;97790.38;;;12.21;56.55
60228;BME280;46091;46.512;6.626;2023-02-19T03:28:25;97784.91;;;12.23;56.38
60228;BME280;46091;46.512;6.626;2023-02-19T03:30:46;97782.44;;;12.21;56.38
60228;BME280;46091;46.512;6.626;2023-02-19T03:32:54;97772.03;;;12.20;56.37
60228;BME280;46091;46.512;6.626;2023-02-19T03:35:01;97768.38;;;12.21;56.52
60228;BME280;46091;46.512;6.626;2023-02-19T03:37:05;97764.88;;;12.20;56.42
60228;BME280;46091;46.512;6.626;2023-02-19T03:39:13;97760.41;;;12.21;56.67
60228;BME280;46091;46.512;6.626;2023-02-19T03:41:22;97774.84;;;12.18;56.40
60228;BME280;46091;46.512;6.626;2023-02-19T03:43:36;97769.56;;;12.18;56.63
60228;BME280;46091;46.512;6.626;2023-02-19T03:45:46;97778.16;;;12.20;56.54
60228;BME280;46091;46.512;6.626;2023-02-19T03:48:02;97772.03;;;12.20;56.67
60228;BME280;46091;46.512;6.626;2023-02-19T03:50:14;97773.66;;;12.21;56.53
60228;BME280;46091;46.512;6.626;2023-02-19T03:52:22;97769.56;;;12.18;56.51
60228;BME280;46091;46.512;6.626;2023-02-19T03:54:35;97768.53;;;12.19;56.76
60228;BME280;46091;46.512;6.626;2023-02-19T03:56:44;97770.38;;;12.19;56.84
60228;BME280;46091;46.512;6.626;2023-02-19T03:58:54;97771.38;;;12.18;56.69
60228;BME280;46091;46.512;6.626;2023-02-19T04:01:03;97775.84;;;12.17;56.85
60228;BME280;46091;46.512;6.626;2023-02-19T04:03:17;97776.03;;;12.16;56.61
60228;BME280;46091;46.512;6.626;2023-02-19T04:05:25;97775.69;;;12.19;56.59
60228;BME280;46091;46.512;6.626;2023-02-19T04:07:30;97782.81;;;12.18;56.63
60228;BME280;46091;46.512;6.626;2023-02-19T04:09:36;97784.63;;;12.18;56.68
60228;BME280;46091;46.512;6.626;2023-02-19T04:11:41;97788.09;;;12.18;56.88
60228;BME280;46091;46.512;6.626;2023-02-19T04:14:07;97792.59;;;12.18;56.58
60228;BME280;46091;46.512;6.626;2023-02-19T04:16:19;97792.41;;;12.19;56.57
60228;BME280;46091;46.512;6.626;2023-02-19T04:18:27;97794.88;;;12.21;56.81
60228;BME280;46091;46.512;6.626;2023-02-19T04:20:35;97801.00;;;12.21;56.64
60228;BME280;46091;46.512;6.626;2023-02-19T04:22:41;97802.00;;;12.20;56.57
60228;BME280;46091;46.512;6.626;2023-02-19T04:24:47;97800.53;;;12.18;56.83
60228;BME280;46091;46.512;6.626;2023-02-19T04:26:51;97800.09;;;12.14;56.97
60228;BME280;46091;46.512;6.626;2023-02-19T04:28:54;97812.69;;;12.12;56.73
60228;BME280;46091;46.512;6.626;2023-02-19T04:30:58;97805.19;;;12.16;56.70
60228;BME280;46091;46.512;6.626;2023-02-19T04:33:01;97807.66;;;12.17;56.86
60228;BME280;46091;46.512;6.626;2023-02-19T04:35:05;97813.59;;;12.19;56.73
60228;BME280;46091;46.512;6.626;2023-02-19T04:37:08;97825.84;;;12.20;56.90
60228;BME280;46091;46.512;6.626;2023-02-19T04:39:11;97830.53;;;12.18;56.82
60228;BME280;46091;46.512;6.626;2023-02-19T04:41:14;97834.81;;;12.19;57.00
60228;BME280;46091;46.512;6.626;2023-02-19T04:43:17;97840.13;;;12.19;56.90
60228;BME280;46091;46.512;6.626;2023-02-19T04:45:20;97839.13;;;12.20;56.82
60228;BME280;46091;46.512;6.626;2023-02-19T04:47:23;97827.50;;;12.21;56.56
60228;BME280;46091;46.512;6.626;2023-02-19T04:49:26;97838.78;;;12.23;56.62
60228;BME280;46091;46.512;6.626;2023-02-19T04:51:30;97837.28;;;12.21;56.88
60228;BME280;46091;46.512;6.626;2023-02-19T04:53:33;97831.16;;;12.20;56.60
60228;BME280;46091;46.512;6.626;2023-02-19T04:55:36;97835.63;;;12.20;56.83
60228;BME280;46091;46.512;6.626;2023-02-19T04:57:39;97836.81;;;12.17;56.78
60228;BME280;46091;46.512;6.626;2023-02-19T04:59:42;97835.00;;;12.18;56.59
60228;BME280;46091;46.512;6.626;2023-02-19T05:01:45;97842.94;;;12.18;56.68
60228;BME280;46091;46.512;6.626;2023-02-19T05:03:48;97852.56;;;12.19;56.88
60228;BME280;46091;46.512;6.626;2023-02-19T05:05:50;97860.50;;;12.19;56.88
60228;BME280;46091;46.512;6.626;2023-02-19T05:07:55;97844.78;;;12.17;56.78
60228;BME280;46091;46.512;6.626;2023-02-19T05:09:57;97836.00;;;12.17;56.89
60228;BME280;46091;46.512;6.626;2023-02-19T05:12:00;97813.78;;;12.18;56.78
60228;BME280;46091;46.512;6.626;2023-02-19T05:14:03;97815.97;;;12.14;56.64
60228;BME280;46091;46.512;6.626;2023-02-19T05:16:08;97824.94;;;12.13;56.61
60228;BME280;46091;46.512;6.626;2023-02-19T05:18:13;97827.59;;;12.13;56.70
60228;BME280;46091;46.512;6.626;2023-02-19T05:20:17;97820.28;;;12.15;56.83
60228;BME280;46091;46.512;6.626;2023-02-19T05:22:19;97815.97;;;12.14;56.87
60228;BME280;46091;46.512;6.626;2023-02-19T05:24:24;97815.81;;;12.16;56.58
60228;BME280;46091;46.512;6.626;2023-02-19T05:26:28;97820.28;;;12.15;56.53
60228;BME280;46091;46.512;6.626;2023-02-19T05:28:31;97813.34;;;12.14;56.82
60228;BME280;46091;46.512;6.626;2023-02-19T05:30:34;97800.91;;;12.15;56.83
60228;BME280;46091;46.512;6.626;2023-02-19T05:32:37;97791.13;;;12.15;56.85
60228;BME280;46091;46.512;6.626;2023-02-19T05:34:40;97788.28;;;12.17;57.02
60228;BME280;46091;46.512;6.626;2023-02-19T05:36:43;97781.34;;;12.16;56.70
60228;BME280;46091;46.512;6.626;2023-02-19T05:38:46;97787.47;;;12.16;56.82
60228;BME280;46091;46.512;6.626;2023-02-19T05:40:51;97786.00;;;12.14;56.77
60228;BME280;46091;46.512;6.626;2023-02-19T05:42:53;97778.22;;;12.12;56.87
60228;BME280;46091;46.512;6.626;2023-02-19T05:44:56;97779.88;;;12.13;57.00
60228;BME280;46091;46.512;6.626;2023-02-19T05:46:59;97765.31;;;12.09;56.78
60228;BME280;46091;46.512;6.626;2023-02-19T05:49:02;97767.31;;;12.07;57.09
60228;BME280;46091;46.512;6.626;2023-02-19T05:51:06;97766.31;;;12.08;56.98
60228;BME280;46091;46.512;6.626;2023-02-19T05:53:11;97775.72;;;12.11;56.93
60228;BME280;46091;46.512;6.626;2023-02-19T05:55:13;97789.81;;;12.11;57.14
60228;BME280;46091;46.512;6.626;2023-02-19T05:57:18;97795.84;;;12.05;57.09
60228;BME280;46091;46.512;6.626;2023-02-19T05:59:24;97783.28;;;11.99;57.23
60228;BME280;46091;46.512;6.626;2023-02-19T06:01:27;97780.75;;;12.06;57.00
60228;BME280;46091;46.512;6.626;2023-02-19T06:03:30;97770.28;;;12.12;56.87
60228;BME280;46091;46.512;6.626;2023-02-19T06:05:33;97776.22;;;12.14;57.10
60228;BME280;46091;46.512;6.626;2023-02-19T06:07:36;97780.16;;;12.18;56.77
60228;BME280;46091;46.512;6.626;2023-02-19T06:09:40;97785.91;;;12.22;56.92
60228;BME280;46091;46.512;6.626;2023-02-19T06:11:42;97783.09;;;12.23;56.87
60228;BME280;46091;46.512;6.626;2023-02-19T06:13:47;97782.94;;;12.25;56.88
60228;BME280;46091;46.512;6.626;2023-02-19T06:15:50;97788.03;;;12.27;56.77
60228;BME280;46091;46.512;6.626;2023-02-19T06:17:53;97791.69;;;12.26;56.76
60228;BME280;46091;46.512;6.626;2023-02-19T06:19:56;97813.72;;;12.26;56.99
60228;BME280;46091;46.512;6.626;2023-02-19T06:21:59;97814.56;;;12.27;56.58
60228;BME280;46091;46.512;6.626;2023-02-19T06:24:06;97815.56;;;12.26;56.73
60228;BME280;46091;46.512;6.626;2023-02-19T06:26:11;97813.72;;;12.26;57.08
60228;BME280;46091;46.512;6.626;2023-02-19T06:28:14;97819.84;;;12.27;56.96
60228;BME280;46091;46.512;6.626;2023-02-19T06:30:19;97821.50;;;12.28;56.92
60228;BME280;46091;46.512;6.626;2023-02-19T06:32:22;97827.16;;;12.24;56.90
60228;BME280;46091;46.512;6.626;2023-02-19T06:34:25;97836.81;;;12.17;57.05
60228;BME280;46091;46.512;6.626;2023-02-19T06:36:28;97845.97;;;12.15;56.84
60228;BME280;46091;46.512;6.626;2023-02-19T06:38:31;97860.72;;;12.09;57.03
60228;BME280;46091;46.512;6.626;2023-02-19T06:40:34;97853.78;;;12.08;56.91
60228;BME280;46091;46.512;6.626;2023-02-19T06:42:37;97860.91;;;12.08;57.41
60228;BME280;46091;46.512;6.626;2023-02-19T06:44:40;97863.09;;;12.04;57.19
60228;BME280;46091;46.512;6.626;2023-02-19T06:46:44;97870.41;;;12.02;57.64
60228;BME280;46091;46.512;6.626;2023-02-19T06:48:47;97865.28;;;12.01;57.62
60228;BME280;46091;46.512;6.626;2023-02-19T06:50:51;97866.75;;;12.03;57.30
60228;BME280;46091;46.512;6.626;2023-02-19T06:52:54;97861.47;;;12.03;57.23
60228;BME280;46091;46.512;6.626;2023-02-19T06:54:57;97852.50;;;12.04;57.20
60228;BME280;46091;46.512;6.626;2023-02-19T06:57:00;97859.44;;;12.05;57.40
60228;BME280;46091;46.512;6.626;2023-02-19T06:59:05;97865.41;;;12.07;57.41
60228;BME280;46091;46.512;6.626;2023-02-19T07:01:10;97870.06;;;12.05;57.48
60228;BME280;46091;46.512;6.626;2023-02-19T07:03:15;97867.03;;;12.08;57.62
60228;BME280;46091;46.512;6.626;2023-02-19T07:05:17;97860.91;;;12.08;57.20
60228;BME280;46091;46.512;6.626;2023-02-19T07:07:20;97871.34;;;12.09;57.60
60228;BME280;46091;46.512;6.626;2023-02-19T07:09:23;97871.97;;;12.11;57.55
60228;BME280;46091;46.512;6.626;2023-02-19T07:11:30;97875.63;;;12.10;57.20
60228;BME280;46091;46.512;6.626;2023-02-19T07:13:33;97874.63;;;12.11;57.20
60228;BME280;46091;46.512;6.626;2023-02-19T07:15:36;97886.09;;;12.12;57.24
60228;BME280;46091;46.512;6.626;2023-02-19T07:17:39;97888.88;;;12.10;57.48
60228;BME280;46091;46.512;6.626;2023-02-19T07:19:43;97895.84;;;12.11;57.02
60228;BME280;46091;46.512;6.626;2023-02-19T07:21:46;97901.00;;;12.13;57.10
60228;BME280;46091;46.512;6.626;2023-02-19T07:23:49;97891.22;;;12.13;56.99
60228;BME280;46091;46.512;6.626;2023-02-19T07:25:52;97891.84;;;12.15;57.15
60228;BME280;46091;46.512;6.626;2023-02-19T07:27:54;97888.19;;;12.16;57.01
60228;BME280;46091;46.512;6.626;2023-02-19T07:29:57;97890.66;;;12.18;57.05
60228;BME280;46091;46.512;6.626;2023-02-19T07:32:01;97880.53;;;12.21;57.41
60228;BME280;46091;46.512;6.626;2023-02-19T07:34:05;97894.28;;;12.25;57.42
60228;BME280;46091;46.512;6.626;2023-02-19T07:36:10;97890.06;;;12.31;57.27
60228;BME280;46091;46.512;6.626;2023-02-19T07:38:14;97897.34;;;12.37;57.12
60228;BME280;46091;46.512;6.626;2023-02-19T07:40:18;97912.53;;;12.43;57.23
60228;BME280;46091;46.512;6.626;2023-02-19T07:42:21;97915.47;;;12.48;57.10
60228;BME280;46091;46.512;6.626;2023-02-19T07:44:24;97921.44;;;12.50;56.98
60228;BME280;46091;46.512;6.626;2023-02-19T07:46:26;97916.78;;;12.52;57.22
60228;BME280;46091;46.512;6.626;2023-02-19T07:48:30;97927.69;;;12.57;56.99
60228;BME280;46091;46.512;6.626;2023-02-19T07:50:34;97931.81;;;12.60;56.89
60228;BME280;46091;46.512;6.626;2023-02-19T07:52:39;97922.00;;;12.60;56.86
60228;BME280;46091;46.512;6.626;2023-02-19T07:54:42;97930.44;;;12.64;57.13
60228;BME280;46091;46.512;6.626;2023-02-19T07:56:44;97931.72;;;12.68;56.88
60228;BME280;46091;46.512;6.626;2023-02-19T07:58:47;97931.56;;;12.69;56.97
60228;BME280;46091;46.512;6.626;2023-02-19T08:00:50;97933.31;;;12.77;56.85
60228;BME280;46091;46.512;6.626;2023-02-19T08:02:53;97933.13;;;12.78;56.91
60228;BME280;46091;46.512;6.626;2023-02-19T08:05:01;97943.22;;;12.83;56.91
60228;BME280;46091;46.512;6.626;2023-02-19T08:07:04;97949.81;;;12.87;56.85
60228;BME280;46091;46.512;6.626;2023-02-19T08:09:08;97939.19;;;12.87;56.53
60228;BME280;46091;46.512;6.626;2023-02-19T08:11:11;97942.47;;;12.89;56.55
60228;BME280;46091;46.512;6.626;2023-02-19T08:13:31;97940.66;;;12.90;56.71
60228;BME280;46091;46.512;6.626;2023-02-19T08:15:34;97949.09;;;12.93;56.61
60228;BME280;46091;46.512;6.626;2023-02-19T08:17:37;97953.59;;;12.93;56.35
60228;BME280;46091;46.512;6.626;2023-02-19T08:19:40;97952.41;;;12.95;56.37
60228;BME280;46091;46.512;6.626;2023-02-19T08:21:43;97953.84;;;12.98;56.64
60228;BME280;46091;46.512;6.626;2023-02-19T08:23:46;97960.81;;;12.99;56.20
60228;BME280;46091;46.512;6.626;2023-02-19T08:25:56;97961.31;;;13.02;56.26
60228;BME280;46091;46.512;6.626;2023-02-19T08:27:59;97957.44;;;13.05;56.17
60228;BME280;46091;46.512;6.626;2023-02-19T08:30:02;97958.09;;;13.07;56.27
60228;BME280;46091;46.512;6.626;2023-02-19T08:32:06;97956.16;;;13.01;56.31
60228;BME280;46091;46.512;6.626;2023-02-19T08:34:09;97956.97;;;13.01;56.25
60228;BME280;46091;46.512;6.626;2023-02-19T08:36:11;97955.31;;;13.00;56.01
60228;BME280;46091;46.512;6.626;2023-02-19T08:38:14;97952.03;;;12.98;56.26
60228;BME280;46091;46.512;6.626;2023-02-19T08:40:17;97951.84;;;13.00;56.32
60228;BME280;46091;46.512;6.626;2023-02-19T08:42:22;97962.28;;;13.01;56.21
60228;BME280;46091;46.512;6.626;2023-02-19T08:44:25;97961.31;;;13.02;56.41
60228;BME280;46091;46.512;6.626;2023-02-19T08:46:28;97958.28;;;13.05;56.07
60228;BME280;46091;46.512;6.626;2023-02-19T08:48:32;97968.53;;;13.08;56.22
60228;BME280;46091;46.512;6.626;2023-02-19T08:50:35;97959.75;;;13.08;56.11
60228;BME280;46091;46.512;6.626;2023-02-19T08:52:39;97969.72;;;13.06;55.97
60228;BME280;46091;46.512;6.626;2023-02-19T08:54:41;97966.06;;;13.07;56.17
60228;BME280;46091;46.512;6.626;2023-02-19T08:56:44;97961.38;;;13.09;55.89
60228;BME280;46091;46.512;6.626;2023-02-19T08:58:49;97960.19;;;13.11;56.10
60228;BME280;46091;46.512;6.626;2023-02-19T09:00:51;97954.53;;;13.15;55.78
60228;BME280;46091;46.512;6.626;2023-02-19T09:02:56;97959.66;;;13.16;55.80
60228;BME280;46091;46.512;6.626;2023-02-19T09:04:59;97959.34;;;13.19;55.57
60228;BME280;46091;46.512;6.626;2023-02-19T09:07:02;97965.91;;;13.23;55.45
60228;BME280;46091;46.512;6.626;2023-02-19T09:09:08;97963.94;;;13.25;55.39
60228;BME280;46091;46.512;6.626;2023-02-19T09:11:11;97964.56;;;13.27;55.37
60228;BME280;46091;46.512;6.626;2023-02-19T09:13:14;97964.56;;;13.27;55.38
60228;BME280;46091;46.512;6.626;2023-02-19T09:15:18;97967.56;;;13.24;55.57
60228;BME280;46091;46.512;6.626;2023-02-19T09:17:21;97968.22;;;13.26;55.78
60228;BME280;46091;46.512;6.626;2023-02-19T09:19:24;97962.56;;;13.29;55.42
60228;BME280;46091;46.512;6.626;2023-02-19T09:21:27;97966.84;;;13.30;55.41
60228;BME280;46091;46.512;6.626;2023-02-19T09:23:31;97961.34;;;13.32;55.64
60228;BME280;46091;46.512;6.626;2023-02-19T09:25:34;97961.81;;;13.35;55.37
60228;BME280;46091;46.512;6.626;2023-02-19T09:27:37;97964.13;;;13.38;55.47
60228;BME280;46091;46.512;6.626;2023-02-19T09:29:40;97963.94;;;13.40;55.59
60228;BME280;46091;46.512;6.626;2023-02-19T09:31:44;97965.41;;;13.43;55.53
60228;BME280;46091;46.512;6.626;2023-02-19T09:33:48;97965.03;;;13.46;55.11
60228;BME280;46091;46.512;6.626;2023-02-19T09:35:50;97961.34;;;13.47;55.32
60228;BME280;46091;46.512;6.626;2023-02-19T09:37:53;97960.19;;;13.49;55.11
60228;BME280;46091;46.512;6.626;2023-02-19T09:39:56;97964.69;;;13.49;55.22
60228;BME280;46091;46.512;6.626;2023-02-19T09:42:02;97959.72;;;13.46;55.21
60228;BME280;46091;46.512;6.626;2023-02-19T09:44:08;97958.06;;;13.45;55.09
60228;BME280;46091;46.512;6.626;2023-02-19T09:46:21;97965.03;;;13.46;55.06
60228;BME280;46091;46.512;6.626;2023-02-19T09:48:27;97958.69;;;13.47;55.23
60228;BME280;46091;46.512;6.626;2023-02-19T09:50:33;97959.06;;;13.44;54.94
60228;BME280;46091;46.512;6.626;2023-02-19T09:52:41;97950.47;;;13.42;54.89
60228;BME280;46091;46.512;6.626;2023-02-19T09:54:47;97952.75;;;13.45;54.98
60228;BME280;46091;46.512;6.626;2023-02-19T09:56:52;97959.38;;;13.49;54.62
60228;BME280;46091;46.512;6.626;2023-02-19T09:58:57;97959.81;;;13.52;55.00
60228;BME280;46091;46.512;6.626;2023-02-19T10:01:02;97961.28;;;13.55;54.53
60228;BME280;46091;46.512;6.626;2023-02-19T10:03:10;97968.03;;;13.57;54.75
60228;BME280;46091;46.512;6.626;2023-02-19T10:05:16;97956.59;;;13.57;54.65
60228;BME280;46091;46.512;6.626;2023-02-19T10:07:21;97962.53;;;13.59;54.64
60228;BME280;46091;46.512;6.626;2023-02-19T10:09:25;97962.53;;;13.59;54.49
60228;BME280;46091;46.512;6.626;2023-02-19T10:11:29;97963.56;;;13.58;54.35
60228;BME280;46091;46.512;6.626;2023-02-19T10:13:35;97963.94;;;13.55;54.64
60228;BME280;46091;46.512;6.626;2023-02-19T10:15:44;97973.47;;;13.49;54.53
60228;BME280;46091;46.512;6.626;2023-02-19T10:17:47;97970.81;;;13.49;54.66
60228;BME280;46091;46.512;6.626;2023-02-19T10:19:51;97968.31;;;13.48;54.84
60228;BME280;46091;46.512;6.626;2023-02-19T10:21:55;97970.81;;;13.49;54.77
60228;BME280;46091;46.512;6.626;2023-02-19T10:24:00;97979.78;;;13.48;54.73
60228;BME280;46091;46.512;6.626;2023-02-19T10:26:04;97970.97;;;13.48;54.52
60228;BME280;46091;46.512;6.626;2023-02-19T10:28:10;97978.31;;;13.46;54.46
60228;BME280;46091;46.512;6.626;2023-02-19T10:30:19;97968.88;;;13.43;54.78
60228;BME280;46091;46.512;6.626;2023-02-19T10:32:25;97960.72;;;13.45;54.64
60228;BME280;46091;46.512;6.626;2023-02-19T10:34:30;97974.63;;;13.47;54.47
60228;BME280;46091;46.512;6.626;2023-02-19T10:36:35;97968.69;;;13.45;54.79
60228;BME280;46091;46.512;6.626;2023-02-19T10:38:45;97975.31;;;13.49;54.62
60228;BME280;46091;46.512;6.626;2023-02-19T10:40:53;97974.28;;;13.50;54.48
60228;BME280;46091;46.512;6.626;2023-02-19T10:43:01;97974.94;;;13.52;54.31
60228;BME280;46091;46.512;6.626;2023-02-19T10:45:11;97978.22;;;13.54;54.51
60228;BME280;46091;46.512;6.626;2023-02-19T10:47:21;97977.78;;;13.50;54.56
60228;BME280;46091;46.512;6.626;2023-02-19T10:49:26;97974.28;;;13.50;54.27
60228;BME280;46091;46.512;6.626;2023-02-19T10:51:33;97973.28;;;13.51;54.31
60228;BME280;46091;46.512;6.626;2023-02-19T10:53:45;97963.66;;;13.50;54.52
60228;BME280;46091;46.512;6.626;2023-02-19T10:56:05;97964.31;;;13.52;54.37
60228;BME280;46091;46.512;6.626;2023-02-19T10:58:21;97962.91;;;13.56;54.18
60228;BME280;46091;46.512;6.626;2023-02-19T11:00:28;97969.88;;;13.57;54.42
60228;BME280;46091;46.512;6.626;2023-02-19T11:02:31;97960.91;;;13.58;54.05
60228;BME280;46091;46.512;6.626;2023-02-19T11:04:34;97964.22;;;13.60;54.09